createdAt,value
2023-03-27T00:00:59.704Z,57.99
2023-03-27T00:02:01.753Z,57.38
2023-03-27T00:03:03.497Z,57.18
2023-03-27T00:04:05.598Z,57.15
2023-03-27T00:05:08.076Z,56.50
2023-03-27T00:06:17.042Z,55.92
2023-03-27T00:07:20.027Z,55.86
2023-03-27T00:08:21.566Z,55.23
2023-03-27T00:09:23.135Z,55.16
2023-03-27T00:10:24.853Z,55.17
2023-03-27T00:11:26.660Z,55.39
2023-03-27T00:12:28.261Z,55.66
2023-03-27T00:13:30.580Z,54.42
2023-03-27T00:14:32.365Z,55.67
2023-03-27T00:15:36.619Z,55.77
2023-03-27T00:16:38.209Z,55.31
2023-03-27T00:17:39.846Z,56.61
2023-03-27T00:18:41.586Z,55.46
2023-03-27T00:19:43.901Z,56.29
2023-03-27T00:20:45.617Z,56.23
2023-03-27T00:21:47.866Z,55.97
2023-03-27T00:22:55.452Z,56.97
2023-03-27T00:23:57.119Z,56.21
2023-03-27T00:24:58.663Z,56.48
2023-03-27T00:26:00.478Z,57.14
2023-03-27T00:27:02.563Z,57.15
2023-03-27T00:28:04.324Z,56.50
2023-03-27T00:29:06.956Z,56.19
2023-03-27T00:30:09.166Z,56.57
2023-03-27T00:31:15.644Z,56.74
2023-03-27T00:32:17.153Z,56.87
2023-03-27T00:33:19.096Z,57.90
2023-03-27T00:34:20.816Z,57.94
2023-03-27T00:35:23.908Z,57.03
2023-03-27T00:36:26.018Z,57.36
2023-03-27T00:37:27.546Z,56.41
2023-03-27T00:38:29.675Z,56.99
2023-03-27T00:39:31.276Z,56.57
2023-03-27T00:40:32.910Z,57.58
2023-03-27T00:41:34.526Z,57.22
2023-03-27T00:42:36.250Z,56.70
2023-03-27T00:43:43.577Z,56.85
2023-03-27T00:44:45.203Z,57.43
2023-03-27T00:45:48.144Z,56.59
2023-03-27T00:46:49.962Z,57.04
2023-03-27T00:47:56.677Z,56.36
2023-03-27T00:49:01.974Z,56.66
2023-03-27T00:50:10.504Z,57.18
2023-03-27T00:51:12.482Z,56.51
2023-03-27T00:52:16.810Z,56.97
2023-03-27T00:53:23.092Z,56.16
2023-03-27T00:54:29.983Z,56.85
2023-03-27T00:55:34.201Z,57.04
2023-03-27T00:56:38.706Z,57.09
2023-03-27T00:57:43.342Z,57.70
2023-03-27T00:58:49.556Z,58.11
2023-03-27T00:59:54.327Z,58.23
2023-03-27T01:00:57.317Z,57.57
2023-03-27T01:02:00.386Z,57.67
2023-03-27T01:03:05.804Z,56.38
2023-03-27T01:04:09.145Z,56.13
2023-03-27T01:05:11.530Z,56.65
2023-03-27T01:06:16.861Z,56.78
2023-03-27T01:07:19.835Z,56.93
2023-03-27T01:08:22.301Z,56.80
2023-03-27T01:09:27.232Z,57.88
2023-03-27T01:10:40.749Z,57.97
2023-03-27T01:12:07.783Z,58.71
2023-03-27T01:13:12.353Z,59.01
2023-03-27T01:14:35.689Z,60.51
2023-03-27T01:15:50.294Z,60.42
2023-03-27T01:16:57.735Z,60.68
2023-03-27T01:18:38.288Z,61.22
2023-03-27T01:19:42.880Z,61.61
2023-03-27T01:21:17.950Z,62.06
2023-03-27T01:22:38.010Z,61.63
2023-03-27T01:24:08.310Z,61.74
2023-03-27T01:25:18.860Z,61.82
2023-03-27T01:26:35.954Z,62.30
2023-03-27T01:28:22.941Z,62.96
2023-03-27T01:29:30.438Z,64.00
2023-03-27T01:30:53.628Z,63.28
2023-03-27T01:32:05.268Z,64.54
2023-03-27T01:33:57.960Z,63.78
2023-03-27T01:35:08.630Z,64.12
2023-03-27T01:36:10.124Z,64.71
2023-03-27T01:37:53.115Z,64.71
2023-03-27T01:39:27.393Z,64.87
2023-03-27T01:40:39.179Z,64.72
2023-03-27T01:42:05.135Z,64.39
2023-03-27T01:43:18.227Z,64.14
2023-03-27T01:44:26.893Z,64.52
2023-03-27T01:45:53.217Z,64.14
2023-03-27T01:47:02.029Z,63.85
2023-03-27T01:48:03.554Z,63.51
2023-03-27T01:49:10.907Z,62.82
2023-03-27T01:50:24.716Z,62.48
2023-03-27T01:51:36.135Z,62.34
2023-03-27T01:52:42.081Z,61.60
2023-03-27T01:53:52.256Z,62.17
2023-03-27T01:54:58.414Z,62.35
2023-03-27T01:56:06.324Z,61.66
2023-03-27T01:57:17.674Z,61.08
2023-03-27T01:58:23.361Z,61.16
2023-03-27T01:59:29.161Z,60.94
2023-03-27T02:00:50.860Z,61.19
2023-03-27T02:02:00.854Z,61.74
2023-03-27T02:03:19.907Z,62.08
2023-03-27T02:04:28.919Z,62.64
2023-03-27T02:05:36.614Z,62.76
2023-03-27T02:06:44.552Z,62.82
2023-03-27T02:07:57.427Z,63.24
2023-03-27T02:09:05.213Z,63.37
2023-03-27T02:10:18.019Z,63.46
2023-03-27T02:11:22.933Z,63.84
2023-03-27T02:12:30.970Z,63.86
2023-03-27T02:13:40.874Z,64.02
2023-03-27T02:14:49.366Z,64.02
2023-03-27T02:15:52.311Z,64.87
2023-03-27T02:17:00.775Z,65.22
2023-03-27T02:18:10.045Z,65.76
2023-03-27T02:19:34.734Z,65.54
2023-03-27T02:20:38.711Z,65.86
2023-03-27T02:21:40.388Z,65.22
2023-03-27T02:22:43.816Z,64.66
2023-03-27T02:23:45.590Z,64.61
2023-03-27T02:24:49.039Z,64.11
2023-03-27T02:25:51.863Z,64.68
2023-03-27T02:27:09.240Z,64.39
2023-03-27T02:28:40.741Z,64.96
2023-03-27T02:29:58.940Z,65.61
2023-03-27T02:31:32.584Z,65.19
2023-03-27T02:32:47.938Z,65.83
2023-03-27T02:34:12.013Z,64.86
2023-03-27T02:35:29.513Z,66.01
2023-03-27T02:37:05.142Z,66.23
2023-03-27T02:38:20.481Z,65.97
2023-03-27T02:39:35.260Z,66.14
2023-03-27T02:41:04.538Z,65.73
2023-03-27T02:42:16.118Z,66.82
2023-03-27T02:43:37.881Z,66.17
2023-03-27T02:45:00.034Z,67.28
2023-03-27T02:46:35.967Z,66.87
2023-03-27T02:47:47.728Z,67.28
2023-03-27T02:48:57.105Z,67.97
2023-03-27T02:50:06.176Z,67.81
2023-03-27T02:51:25.552Z,66.97
2023-03-27T02:52:34.218Z,68.13
2023-03-27T02:53:42.845Z,67.67
2023-03-27T02:54:50.856Z,67.58
2023-03-27T02:55:57.239Z,67.36
2023-03-27T02:57:05.252Z,67.09
2023-03-27T02:58:12.101Z,67.58
2023-03-27T02:59:22.515Z,67.16
2023-03-27T03:00:28.069Z,67.41
2023-03-27T03:01:32.562Z,67.40
2023-03-27T03:02:34.662Z,66.88
2023-03-27T03:03:42.642Z,67.61
2023-03-27T03:04:50.461Z,67.62
2023-03-27T03:05:52.119Z,67.79
2023-03-27T03:06:54.228Z,67.35
2023-03-27T03:07:58.165Z,67.33
2023-03-27T03:09:03.134Z,67.63
2023-03-27T03:10:09.667Z,68.41
2023-03-27T03:11:14.336Z,68.39
2023-03-27T03:12:16.152Z,68.40
2023-03-27T03:13:18.022Z,68.91
2023-03-27T03:14:24.562Z,68.72
2023-03-27T03:15:26.098Z,68.01
2023-03-27T03:16:29.240Z,67.96
2023-03-27T03:17:30.959Z,68.31
2023-03-27T03:18:32.537Z,68.44
2023-03-27T03:19:34.115Z,69.19
2023-03-27T03:20:35.724Z,69.04
2023-03-27T03:21:37.661Z,68.78
2023-03-27T03:22:40.022Z,69.01
2023-03-27T03:23:41.594Z,69.03
2023-03-27T03:25:00.168Z,69.73
2023-03-27T03:26:03.091Z,69.71
2023-03-27T03:27:05.734Z,68.98
2023-03-27T03:28:09.792Z,69.69
2023-03-27T03:29:12.955Z,69.26
2023-03-27T03:30:17.018Z,69.32
2023-03-27T03:31:19.290Z,68.80
2023-03-27T03:32:21.035Z,69.49
2023-03-27T03:33:22.687Z,68.77
2023-03-27T03:34:28.642Z,68.68
2023-03-27T03:35:30.353Z,68.71
2023-03-27T03:36:33.233Z,68.18
2023-03-27T03:37:39.457Z,67.92
2023-03-27T03:38:46.170Z,68.52
2023-03-27T03:39:48.340Z,68.22
2023-03-27T03:40:52.126Z,68.93
2023-03-27T03:41:54.208Z,68.53
2023-03-27T03:42:55.936Z,68.21
2023-03-27T03:43:57.446Z,67.63
2023-03-27T03:44:58.953Z,68.20
2023-03-27T03:46:00.834Z,68.94
2023-03-27T03:47:02.572Z,67.95
2023-03-27T03:48:04.201Z,68.22
2023-03-27T03:49:06.608Z,67.55
2023-03-27T03:50:08.617Z,68.00
2023-03-27T03:51:10.215Z,67.40
2023-03-27T03:52:11.853Z,66.00
2023-03-27T03:53:15.427Z,65.04
2023-03-27T03:54:17.009Z,65.17
2023-03-27T03:55:18.567Z,65.14
2023-03-27T03:56:20.210Z,64.90
2023-03-27T03:57:21.721Z,64.40
2023-03-27T03:58:34.761Z,65.17
2023-03-27T03:59:36.818Z,64.76
2023-03-27T04:00:39.919Z,65.34
2023-03-27T04:01:41.630Z,64.19
2023-03-27T04:02:43.696Z,64.24
2023-03-27T04:03:45.536Z,63.48
2023-03-27T04:04:47.241Z,63.88
2023-03-27T04:05:48.932Z,64.08
2023-03-27T04:06:51.076Z,64.55
2023-03-27T04:07:52.728Z,64.19
2023-03-27T04:08:54.284Z,64.92
2023-03-27T04:09:55.900Z,64.63
2023-03-27T04:10:57.678Z,64.23
2023-03-27T04:11:59.694Z,65.17
2023-03-27T04:13:01.612Z,65.33
2023-03-27T04:14:03.204Z,66.46
2023-03-27T04:15:05.506Z,67.10
2023-03-27T04:16:08.219Z,66.74
2023-03-27T04:17:10.228Z,67.21
2023-03-27T04:18:11.860Z,67.77
2023-03-27T04:19:13.597Z,68.26
2023-03-27T04:20:15.642Z,66.95
2023-03-27T04:21:17.659Z,68.27
2023-03-27T04:22:19.251Z,68.46
2023-03-27T04:23:20.767Z,68.39
2023-03-27T04:24:24.079Z,69.60
2023-03-27T04:25:26.416Z,69.36
2023-03-27T04:26:29.714Z,68.28
2023-03-27T04:27:31.652Z,68.81
2023-03-27T04:28:34.258Z,69.72
2023-03-27T04:29:36.282Z,69.17
2023-03-27T04:30:38.772Z,68.79
2023-03-27T04:31:40.449Z,68.26
2023-03-27T04:32:42.153Z,68.88
2023-03-27T04:33:46.436Z,68.46
2023-03-27T04:34:50.344Z,69.13
2023-03-27T04:36:05.367Z,69.27
2023-03-27T04:37:08.564Z,69.37
2023-03-27T04:38:10.249Z,69.51
2023-03-27T04:39:11.987Z,69.94
2023-03-27T04:40:16.021Z,69.36
2023-03-27T04:41:17.984Z,69.19
2023-03-27T04:42:23.473Z,68.95
2023-03-27T04:43:26.207Z,68.88
2023-03-27T04:44:27.778Z,69.18
2023-03-27T04:45:29.395Z,68.84
2023-03-27T04:46:31.327Z,69.12
2023-03-27T04:47:37.787Z,68.90
2023-03-27T04:48:39.565Z,68.04
2023-03-27T04:49:43.051Z,68.34
2023-03-27T04:50:49.290Z,67.59
2023-03-27T04:51:51.272Z,67.80
2023-03-27T04:52:58.554Z,67.95
2023-03-27T04:54:00.143Z,66.85
2023-03-27T04:55:02.154Z,67.00
2023-03-27T04:56:05.514Z,67.50
2023-03-27T04:57:07.617Z,67.82
2023-03-27T04:58:09.224Z,68.20
2023-03-27T04:59:10.750Z,68.30
2023-03-27T05:00:19.793Z,68.13
2023-03-27T05:01:22.797Z,67.85
2023-03-27T05:02:26.604Z,68.23
2023-03-27T05:03:28.562Z,68.19
2023-03-27T05:04:32.029Z,67.38
2023-03-27T05:05:34.766Z,67.47
2023-03-27T05:06:37.443Z,66.96
2023-03-27T05:07:40.258Z,67.03
2023-03-27T05:08:41.807Z,67.69
2023-03-27T05:09:43.389Z,68.41
2023-03-27T05:10:46.495Z,68.01
2023-03-27T05:11:50.227Z,68.71
2023-03-27T05:12:54.425Z,68.95
2023-03-27T05:13:56.824Z,69.89
2023-03-27T05:14:59.300Z,69.10
2023-03-27T05:16:01.872Z,69.05
2023-03-27T05:17:03.551Z,69.55
2023-03-27T05:18:07.209Z,68.41
2023-03-27T05:19:09.391Z,68.68
2023-03-27T05:20:14.712Z,68.67
2023-03-27T05:21:16.791Z,68.21
2023-03-27T05:22:18.346Z,68.74
2023-03-27T05:23:19.918Z,69.35
2023-03-27T05:24:21.493Z,69.69
2023-03-27T05:25:23.488Z,69.66
2023-03-27T05:26:25.043Z,69.67
2023-03-27T05:27:26.547Z,70.05
2023-03-27T05:28:29.349Z,70.33
2023-03-27T05:29:31.057Z,70.45
2023-03-27T05:30:48.805Z,70.43
2023-03-27T05:31:50.560Z,69.59
2023-03-27T05:32:53.592Z,69.83
2023-03-27T05:33:55.359Z,70.36
2023-03-27T05:34:56.882Z,70.61
2023-03-27T05:35:58.698Z,70.42
2023-03-27T05:37:05.749Z,70.58
2023-03-27T05:38:08.264Z,69.78
2023-03-27T05:39:09.815Z,70.03
2023-03-27T05:40:11.680Z,69.95
2023-03-27T05:41:15.878Z,69.54
2023-03-27T05:42:17.492Z,70.35
2023-03-27T05:43:20.471Z,69.49
2023-03-27T05:44:23.568Z,70.28
2023-03-27T05:45:26.134Z,69.26
2023-03-27T05:46:27.798Z,69.73
2023-03-27T05:47:29.371Z,69.01
2023-03-27T05:48:31.016Z,69.44
2023-03-27T05:49:34.169Z,70.04
2023-03-27T05:50:35.992Z,69.58
2023-03-27T05:51:37.523Z,70.26
2023-03-27T05:52:39.109Z,70.12
2023-03-27T05:53:40.708Z,70.63
2023-03-27T05:54:42.267Z,70.05
2023-03-27T05:55:44.347Z,70.28
2023-03-27T05:56:46.611Z,69.68
2023-03-27T05:57:48.209Z,69.87
2023-03-27T05:58:49.744Z,70.41
2023-03-27T05:59:51.300Z,70.95
2023-03-27T06:00:52.892Z,70.01
2023-03-27T06:01:54.541Z,71.03
2023-03-27T06:03:02.493Z,70.68
2023-03-27T06:04:04.510Z,70.48
2023-03-27T06:05:10.630Z,70.07
2023-03-27T06:06:12.827Z,69.82
2023-03-27T06:07:14.968Z,70.40
2023-03-27T06:08:17.005Z,69.26
2023-03-27T06:09:18.577Z,69.13
2023-03-27T06:10:23.169Z,68.83
2023-03-27T06:11:25.116Z,68.12
2023-03-27T06:12:26.674Z,67.38
2023-03-27T06:13:28.609Z,67.18
2023-03-27T06:14:30.429Z,66.65
2023-03-27T06:15:33.684Z,65.92
2023-03-27T06:16:35.559Z,65.99
2023-03-27T06:17:40.225Z,65.84
2023-03-27T06:18:41.850Z,66.75
2023-03-27T06:19:43.442Z,66.65
2023-03-27T06:20:44.987Z,65.39
2023-03-27T06:21:46.947Z,65.65
2023-03-27T06:22:55.616Z,65.34
2023-03-27T06:23:57.230Z,64.94
2023-03-27T06:24:58.763Z,63.97
2023-03-27T06:26:00.375Z,64.28
2023-03-27T06:27:02.937Z,63.72
2023-03-27T06:28:08.114Z,64.14
2023-03-27T06:29:09.657Z,64.48
2023-03-27T06:30:13.553Z,64.20
2023-03-27T06:31:15.210Z,63.68
2023-03-27T06:32:17.059Z,63.89
2023-03-27T06:33:18.605Z,63.07
2023-03-27T06:34:20.202Z,62.79
2023-03-27T06:35:21.940Z,62.86
2023-03-27T06:36:24.991Z,62.03
2023-03-27T06:37:26.565Z,62.46
2023-03-27T06:38:32.134Z,62.06
2023-03-27T06:39:33.801Z,62.36
2023-03-27T06:40:35.518Z,62.93
2023-03-27T06:41:37.081Z,63.66
2023-03-27T06:42:38.586Z,63.80
2023-03-27T06:43:40.189Z,63.06
2023-03-27T06:44:41.678Z,62.60
2023-03-27T06:45:46.194Z,61.86
2023-03-27T06:46:47.976Z,62.29
2023-03-27T06:47:54.818Z,62.21
2023-03-27T06:48:57.156Z,61.84
2023-03-27T06:49:58.699Z,62.38
2023-03-27T06:51:00.410Z,61.82
2023-03-27T06:52:02.924Z,61.61
2023-03-27T06:53:10.056Z,62.56
2023-03-27T06:54:17.474Z,61.95
2023-03-27T06:55:20.392Z,60.62
2023-03-27T06:56:21.943Z,60.18
2023-03-27T06:57:23.494Z,60.56
2023-03-27T06:58:25.233Z,60.84
2023-03-27T06:59:26.863Z,60.17
2023-03-27T07:00:31.597Z,61.08
2023-03-27T07:01:33.457Z,61.15
2023-03-27T07:02:35.083Z,61.38
2023-03-27T07:03:36.653Z,61.31
2023-03-27T07:04:38.420Z,60.69
2023-03-27T07:05:40.898Z,61.54
2023-03-27T07:06:43.188Z,61.06
2023-03-27T07:07:45.153Z,61.20
2023-03-27T07:08:48.918Z,60.84
2023-03-27T07:09:50.873Z,60.85
2023-03-27T07:11:07.962Z,61.05
2023-03-27T07:12:12.780Z,60.19
2023-03-27T07:13:15.662Z,60.93
2023-03-27T07:14:17.213Z,61.04
2023-03-27T07:15:20.375Z,61.44
2023-03-27T07:16:21.982Z,61.22
2023-03-27T07:17:25.316Z,60.78
2023-03-27T07:18:26.935Z,60.52
2023-03-27T07:19:28.562Z,59.57
2023-03-27T07:20:31.727Z,59.28
2023-03-27T07:21:33.290Z,58.34
2023-03-27T07:22:34.849Z,58.17
2023-03-27T07:23:36.794Z,58.02
2023-03-27T07:24:38.436Z,58.10
2023-03-27T07:25:40.622Z,58.29
2023-03-27T07:26:42.136Z,57.63
2023-03-27T07:27:43.722Z,57.69
2023-03-27T07:28:45.387Z,57.92
2023-03-27T07:29:47.208Z,57.87
2023-03-27T07:30:48.786Z,57.95
2023-03-27T07:32:55.194Z,56.16
2023-03-27T07:33:57.986Z,55.29
2023-03-27T07:34:59.617Z,55.68
2023-03-27T07:36:06.783Z,56.29
2023-03-27T07:37:08.450Z,55.98
2023-03-27T07:38:11.563Z,55.60
2023-03-27T07:39:14.281Z,55.20
2023-03-27T07:40:29.534Z,55.43
2023-03-27T07:41:35.031Z,54.75
2023-03-27T07:42:36.648Z,54.81
2023-03-27T07:43:38.179Z,54.73
2023-03-27T07:44:39.745Z,54.49
2023-03-27T07:45:42.094Z,54.25
2023-03-27T07:46:43.755Z,54.69
2023-03-27T07:47:46.938Z,54.24
2023-03-27T07:48:49.129Z,54.70
2023-03-27T07:49:51.042Z,54.73
2023-03-27T07:50:56.114Z,54.63
2023-03-27T07:52:00.534Z,54.21
2023-03-27T07:53:02.079Z,53.74
2023-03-27T07:54:04.514Z,54.59
2023-03-27T07:55:07.756Z,54.41
2023-03-27T07:56:10.565Z,54.51
2023-03-27T07:57:13.821Z,54.19
2023-03-27T07:58:15.565Z,55.10
2023-03-27T07:59:17.369Z,55.23
2023-03-27T08:00:19.941Z,55.36
2023-03-27T08:01:21.564Z,54.97
2023-03-27T08:02:25.027Z,54.45
2023-03-27T08:03:28.230Z,55.02
2023-03-27T08:04:30.062Z,53.52
2023-03-27T08:05:31.649Z,54.12
2023-03-27T08:06:33.345Z,54.45
2023-03-27T08:07:36.252Z,53.20
2023-03-27T08:08:37.937Z,53.88
2023-03-27T08:09:39.575Z,54.44
2023-03-27T08:10:41.578Z,54.13
2023-03-27T08:11:44.296Z,53.82
2023-03-27T08:12:45.941Z,53.62
2023-03-27T08:13:47.713Z,53.59
2023-03-27T08:14:49.292Z,53.44
2023-03-27T08:15:51.345Z,53.70
2023-03-27T08:16:54.359Z,52.83
2023-03-27T08:17:59.426Z,52.21
2023-03-27T08:19:03.077Z,52.42
2023-03-27T08:20:09.367Z,51.35
2023-03-27T08:21:11.799Z,50.50
2023-03-27T08:22:13.989Z,50.15
2023-03-27T08:23:16.402Z,49.71
2023-03-27T08:24:18.005Z,49.37
2023-03-27T08:25:22.617Z,48.83
2023-03-27T08:26:26.584Z,49.01
2023-03-27T08:27:28.149Z,49.55
2023-03-27T08:28:34.416Z,49.30
2023-03-27T08:29:35.997Z,49.08
2023-03-27T08:30:37.669Z,49.01
2023-03-27T08:31:39.500Z,49.96
2023-03-27T08:32:42.211Z,49.36
2023-03-27T08:33:43.858Z,50.16
2023-03-27T08:34:45.848Z,50.41
2023-03-27T08:35:48.808Z,49.94
2023-03-27T08:36:50.425Z,50.26
2023-03-27T08:37:52.823Z,50.46
2023-03-27T08:38:55.393Z,50.83
2023-03-27T08:39:58.985Z,50.99
2023-03-27T08:41:03.629Z,51.38
2023-03-27T08:42:08.623Z,51.70
2023-03-27T08:43:16.864Z,51.08
2023-03-27T08:44:21.359Z,51.30
2023-03-27T08:45:28.108Z,51.04
2023-03-27T08:46:37.558Z,51.56
2023-03-27T08:47:44.659Z,51.61
2023-03-27T08:48:53.957Z,52.01
2023-03-27T08:50:00.621Z,51.82
2023-03-27T08:51:06.929Z,51.96
2023-03-27T08:52:22.668Z,52.39
2023-03-27T08:54:00.315Z,52.29
2023-03-27T08:55:33.729Z,52.38
2023-03-27T08:56:37.424Z,52.57
2023-03-27T08:57:39.061Z,52.17
2023-03-27T08:58:41.738Z,52.81
2023-03-27T08:59:43.363Z,52.47
2023-03-27T09:00:47.445Z,53.44
2023-03-27T09:02:10.804Z,53.12
2023-03-27T09:03:43.595Z,53.59
2023-03-27T09:05:01.685Z,53.62
2023-03-27T09:06:11.620Z,53.85
2023-03-27T09:07:19.878Z,54.13
2023-03-27T09:08:49.672Z,54.77
2023-03-27T09:10:00.167Z,54.34
2023-03-27T09:11:52.079Z,54.77
2023-03-27T09:12:54.517Z,54.25
2023-03-27T09:13:56.582Z,55.35
2023-03-27T09:15:09.787Z,55.23
2023-03-27T09:16:19.764Z,56.04
2023-03-27T09:17:27.254Z,56.01
2023-03-27T09:18:54.265Z,55.94
2023-03-27T09:20:18.269Z,55.23
2023-03-27T09:21:35.060Z,55.68
2023-03-27T09:22:45.919Z,55.87
2023-03-27T09:23:48.777Z,55.85
2023-03-27T09:24:54.245Z,56.05
2023-03-27T09:26:01.124Z,56.63
2023-03-27T09:27:27.425Z,57.47
2023-03-27T09:28:35.838Z,56.99
2023-03-27T09:29:41.423Z,57.38
2023-03-27T09:30:43.021Z,57.07
2023-03-27T09:31:53.689Z,57.55
2023-03-27T09:33:03.627Z,57.99
2023-03-27T09:34:09.020Z,58.10
2023-03-27T09:35:20.339Z,57.89
2023-03-27T09:36:24.680Z,58.08
2023-03-27T09:37:28.139Z,58.35
2023-03-27T09:38:37.545Z,58.17
2023-03-27T09:39:44.132Z,57.59
2023-03-27T09:40:54.645Z,58.19
2023-03-27T09:42:07.426Z,58.00
2023-03-27T09:43:17.586Z,57.91
2023-03-27T09:44:34.417Z,57.47
2023-03-27T09:45:39.288Z,57.92
2023-03-27T09:46:45.819Z,57.61
2023-03-27T09:48:12.065Z,57.49
2023-03-27T09:49:16.237Z,57.54
2023-03-27T09:50:41.450Z,57.35
2023-03-27T09:51:48.757Z,57.40
2023-03-27T09:52:52.333Z,57.35
2023-03-27T09:53:58.786Z,58.00
2023-03-27T09:55:00.719Z,57.91
2023-03-27T09:56:06.305Z,58.50
2023-03-27T09:57:12.624Z,58.58
2023-03-27T09:58:41.061Z,58.06
2023-03-27T10:00:01.233Z,58.10
2023-03-27T10:01:36.129Z,59.19
2023-03-27T10:02:37.882Z,59.48
2023-03-27T10:03:49.036Z,59.46
2023-03-27T10:05:11.939Z,59.48
2023-03-27T10:06:16.556Z,59.06
2023-03-27T10:07:25.754Z,59.03
2023-03-27T10:08:40.778Z,59.53
2023-03-27T10:09:42.852Z,59.51
2023-03-27T10:10:45.937Z,59.98
2023-03-27T10:11:50.822Z,60.08
2023-03-27T10:12:58.335Z,60.22
2023-03-27T10:14:02.177Z,60.33
2023-03-27T10:15:06.952Z,60.27
2023-03-27T10:16:08.996Z,60.08
2023-03-27T10:17:33.250Z,60.08
2023-03-27T10:18:43.462Z,60.51
2023-03-27T10:19:47.237Z,60.19
2023-03-27T10:20:54.299Z,60.62
2023-03-27T10:22:00.538Z,60.87
2023-03-27T10:23:22.751Z,60.68
2023-03-27T10:24:33.451Z,60.71
2023-03-27T10:25:39.376Z,60.94
2023-03-27T10:26:41.034Z,60.53
2023-03-27T10:27:43.818Z,60.75
2023-03-27T10:28:52.641Z,60.68
2023-03-27T10:29:54.207Z,60.72
2023-03-27T10:31:24.070Z,61.01
2023-03-27T10:32:52.871Z,61.29
2023-03-27T10:33:54.429Z,61.13
2023-03-27T10:34:58.279Z,60.85
2023-03-27T10:36:00.582Z,61.52
2023-03-27T10:37:17.629Z,61.19
2023-03-27T10:38:22.550Z,60.94
2023-03-27T10:39:35.073Z,60.67
2023-03-27T10:40:39.549Z,61.11
2023-03-27T10:41:41.402Z,61.20
2023-03-27T10:42:43.155Z,60.75
2023-03-27T10:43:47.227Z,61.11
2023-03-27T10:44:49.405Z,60.92
2023-03-27T10:45:58.986Z,60.48
2023-03-27T10:47:01.000Z,60.06
2023-03-27T10:48:07.009Z,60.26
2023-03-27T10:49:32.459Z,60.48
2023-03-27T10:50:53.505Z,60.71
2023-03-27T10:52:20.387Z,60.30
2023-03-27T10:53:33.258Z,60.86
2023-03-27T10:54:51.286Z,60.77
2023-03-27T10:56:13.864Z,60.53
2023-03-27T10:57:24.278Z,60.67
2023-03-27T10:58:35.285Z,60.95
2023-03-27T10:59:57.030Z,60.78
2023-03-27T11:01:11.605Z,61.11
2023-03-27T11:02:42.146Z,61.27
2023-03-27T11:03:58.491Z,61.50
2023-03-27T11:05:08.284Z,61.26
2023-03-27T11:06:16.549Z,60.97
2023-03-27T11:07:27.262Z,61.41
2023-03-27T11:08:36.239Z,62.06
2023-03-27T11:09:47.345Z,62.21
2023-03-27T11:10:50.215Z,62.77
2023-03-27T11:11:57.758Z,63.66
2023-03-27T11:13:17.585Z,62.30
2023-03-27T11:14:38.826Z,62.33
2023-03-27T11:15:46.100Z,63.04
2023-03-27T11:16:58.710Z,64.55
2023-03-27T11:18:06.998Z,65.36
2023-03-27T11:19:11.422Z,62.81
2023-03-27T11:20:30.212Z,64.29
2023-03-27T11:21:44.129Z,64.61
2023-03-27T11:22:55.062Z,65.14
2023-03-27T11:23:58.722Z,64.76
2023-03-27T11:25:04.258Z,64.90
2023-03-27T11:26:07.578Z,64.48
2023-03-27T11:27:23.386Z,67.63
2023-03-27T11:28:43.528Z,67.23
2023-03-27T11:30:30.267Z,68.35
2023-03-27T11:31:44.245Z,65.68
2023-03-27T11:32:58.782Z,63.89
2023-03-27T11:34:32.517Z,64.92
2023-03-27T11:35:39.428Z,65.60
2023-03-27T11:36:52.034Z,65.67
2023-03-27T11:38:03.524Z,67.51
2023-03-27T11:39:23.670Z,67.81
2023-03-27T11:40:46.566Z,68.77
2023-03-27T11:41:57.820Z,68.79
2023-03-27T11:42:59.931Z,69.97
2023-03-27T11:44:01.618Z,70.59
2023-03-27T11:45:07.328Z,70.43
2023-03-27T11:46:08.968Z,71.36
2023-03-27T11:47:32.567Z,71.33
2023-03-27T11:49:15.018Z,72.74
2023-03-27T11:50:25.090Z,74.56
2023-03-27T11:51:51.214Z,74.38
2023-03-27T11:53:12.248Z,75.88
2023-03-27T11:54:41.428Z,76.10
2023-03-27T11:56:04.952Z,77.07
2023-03-27T11:57:22.136Z,78.15
2023-03-27T11:58:40.491Z,79.46
2023-03-27T11:59:48.529Z,80.53
2023-03-27T12:00:58.907Z,81.86
2023-03-27T12:02:21.381Z,81.85
2023-03-27T12:03:43.658Z,83.35
2023-03-27T12:04:52.255Z,84.43
2023-03-27T12:06:16.403Z,84.91
2023-03-27T12:07:59.365Z,84.65
2023-03-27T12:09:20.792Z,84.62
2023-03-27T12:10:29.146Z,84.43
2023-03-27T12:11:31.254Z,83.37
2023-03-27T12:12:46.612Z,84.74
2023-03-27T12:14:18.432Z,85.60
2023-03-27T12:15:42.649Z,86.90
2023-03-27T12:16:56.393Z,86.88
2023-03-27T12:18:06.947Z,87.91
2023-03-27T12:19:31.195Z,85.92
2023-03-27T12:20:43.515Z,85.84
2023-03-27T12:22:25.555Z,86.26
2023-03-27T12:24:02.359Z,85.85
2023-03-27T12:25:40.793Z,85.55
2023-03-27T12:26:48.243Z,86.20
2023-03-27T12:28:01.338Z,87.67
2023-03-27T12:29:29.048Z,89.44
2023-03-27T12:30:41.376Z,88.50
2023-03-27T12:32:14.159Z,90.54
2023-03-27T12:33:32.826Z,90.40
2023-03-27T12:34:42.904Z,90.80
2023-03-27T12:35:51.948Z,90.35
2023-03-27T12:36:53.948Z,91.09
2023-03-27T12:38:18.773Z,90.53
2023-03-27T12:39:24.506Z,91.98
2023-03-27T12:40:52.337Z,92.82
2023-03-27T12:41:53.869Z,93.28
2023-03-27T12:43:06.002Z,92.08
2023-03-27T12:44:13.364Z,92.83
2023-03-27T12:45:23.865Z,90.35
2023-03-27T12:46:26.508Z,90.61
2023-03-27T12:47:29.696Z,89.85
2023-03-27T12:48:31.324Z,88.78
2023-03-27T12:50:00.243Z,89.08
2023-03-27T12:51:12.854Z,88.06
2023-03-27T12:52:15.113Z,89.21
2023-03-27T12:53:39.989Z,88.61
2023-03-27T12:55:07.187Z,89.38
2023-03-27T12:56:17.716Z,90.43
2023-03-27T12:57:22.381Z,93.54
2023-03-27T12:58:33.891Z,95.42
2023-03-27T12:59:54.903Z,97.93
2023-03-27T13:01:03.037Z,98.97
2023-03-27T13:02:04.633Z,100.00
2023-03-27T13:03:52.756Z,99.27
2023-03-27T13:05:24.018Z,99.96
2023-03-27T13:06:43.372Z,100.00
2023-03-27T13:07:56.162Z,100.00
2023-03-27T13:09:09.671Z,100.00
2023-03-27T13:10:23.532Z,100.00
2023-03-27T13:11:38.368Z,100.00
2023-03-27T13:13:04.552Z,100.00
2023-03-27T13:14:11.877Z,100.00
2023-03-27T13:15:31.730Z,100.00
2023-03-27T13:17:11.549Z,100.00
2023-03-27T13:18:38.269Z,100.00
2023-03-27T13:19:52.115Z,100.00
2023-03-27T13:21:08.693Z,100.00
2023-03-27T13:22:47.631Z,100.00
2023-03-27T13:23:59.368Z,100.00
2023-03-27T13:25:48.679Z,100.00
2023-03-27T13:27:01.550Z,100.00
2023-03-27T13:28:37.233Z,100.00
2023-03-27T13:29:39.278Z,100.00
2023-03-27T13:30:50.311Z,100.00
2023-03-27T13:32:31.152Z,100.00
2023-03-27T13:33:35.810Z,100.00
2023-03-27T13:34:41.994Z,99.40
2023-03-27T13:36:32.292Z,99.84
2023-03-27T13:37:36.476Z,99.32
2023-03-27T13:38:53.357Z,98.78
2023-03-27T13:40:10.212Z,99.61
2023-03-27T13:41:47.767Z,99.78
2023-03-27T13:43:03.732Z,98.73
2023-03-27T13:44:10.762Z,97.76
2023-03-27T13:45:35.847Z,96.00
2023-03-27T13:46:39.397Z,97.02
2023-03-27T13:47:46.879Z,97.50
2023-03-27T13:49:30.711Z,96.54
2023-03-27T13:50:52.156Z,97.27
2023-03-27T13:52:14.581Z,97.11
2023-03-27T13:54:06.766Z,97.57
2023-03-27T13:55:28.018Z,98.62
2023-03-27T13:56:44.892Z,99.64
2023-03-27T13:58:14.070Z,97.53
2023-03-27T13:59:33.560Z,96.35
2023-03-27T14:00:50.352Z,94.24
2023-03-27T14:02:17.037Z,94.63
2023-03-27T14:03:18.652Z,94.18
2023-03-27T14:04:47.570Z,94.40
2023-03-27T14:06:03.143Z,95.42
2023-03-27T14:07:36.693Z,95.80
2023-03-27T14:08:44.292Z,96.01
2023-03-27T14:10:10.384Z,96.32
2023-03-27T14:11:23.753Z,96.24
2023-03-27T14:13:09.774Z,94.02
2023-03-27T14:14:25.857Z,92.58
2023-03-27T14:15:48.847Z,93.30
2023-03-27T14:17:11.914Z,92.85
2023-03-27T14:18:47.232Z,93.37
2023-03-27T14:20:23.094Z,91.61
2023-03-27T14:21:36.142Z,91.99
2023-03-27T14:22:56.827Z,93.18
2023-03-27T14:24:19.662Z,92.07
2023-03-27T14:25:25.994Z,92.93
2023-03-27T14:26:30.434Z,92.56
2023-03-27T14:27:34.560Z,93.42
2023-03-27T14:28:58.789Z,94.06
2023-03-27T14:30:07.236Z,94.12
2023-03-27T14:31:11.334Z,91.89
2023-03-27T14:32:17.467Z,92.28
2023-03-27T14:33:20.073Z,91.99
2023-03-27T14:34:25.529Z,92.37
2023-03-27T14:35:41.155Z,92.16
2023-03-27T14:36:46.021Z,92.35
2023-03-27T14:37:55.805Z,93.38
2023-03-27T14:39:02.277Z,91.17
2023-03-27T14:40:20.576Z,93.00
2023-03-27T14:41:26.880Z,93.37
2023-03-27T14:42:32.818Z,92.35
2023-03-27T14:43:34.908Z,93.08
2023-03-27T14:44:36.432Z,91.84
2023-03-27T14:45:40.786Z,91.29